createdAt,value
2017-12-22T00:01:34.866Z,33.88
2017-12-22T00:04:02.014Z,42.30
2017-12-22T00:06:29.165Z,38.50
2017-12-22T00:08:56.082Z,34.72
2017-12-22T00:11:23.262Z,36.70
2017-12-22T00:13:50.413Z,33.08
2017-12-22T00:16:17.374Z,30.65
2017-12-22T00:18:44.543Z,35.10
2017-12-22T00:21:11.652Z,34.50
2017-12-22T00:23:38.513Z,33.73
2017-12-22T00:26:05.436Z,35.15
2017-12-22T00:28:32.354Z,28.73
2017-12-22T00:30:59.204Z,34.22
2017-12-22T00:33:26.077Z,30.80
2017-12-22T00:35:53.193Z,32.90
2017-12-22T00:38:20.053Z,29.53
2017-12-22T00:40:46.930Z,28.30
2017-12-22T00:43:13.842Z,30.83
2017-12-22T00:45:46.642Z,29.20
2017-12-22T00:48:13.579Z,31.92
2017-12-22T00:50:40.473Z,30.05
2017-12-22T00:53:07.578Z,33.88
2017-12-22T00:55:34.444Z,35.40
2017-12-22T00:58:01.572Z,32.13
2017-12-22T01:00:28.470Z,32.35
2017-12-22T01:02:55.376Z,30.58
2017-12-22T01:05:22.274Z,27.05
2017-12-22T01:07:49.164Z,35.33
2017-12-22T01:10:16.042Z,28.40
2017-12-22T01:12:42.954Z,30.02
2017-12-22T01:15:09.858Z,29.55
2017-12-22T01:17:36.756Z,27.95
2017-12-22T01:20:03.625Z,29.00
2017-12-22T01:22:30.829Z,35.67
2017-12-22T01:24:58.098Z,28.00
2017-12-22T01:27:24.956Z,29.73
2017-12-22T01:29:52.182Z,32.20
2017-12-22T01:32:19.425Z,27.13
2017-12-22T01:34:46.316Z,26.90
2017-12-22T01:37:13.209Z,35.50
2017-12-22T01:39:40.112Z,27.15
2017-12-22T01:42:07.071Z,31.65
2017-12-22T01:44:33.949Z,28.20
2017-12-22T01:47:00.824Z,28.70
2017-12-22T01:49:27.702Z,29.63
2017-12-22T01:51:54.581Z,26.65
2017-12-22T01:54:21.482Z,25.52
2017-12-22T01:56:48.626Z,26.08
2017-12-22T01:59:15.513Z,29.48
2017-12-22T02:01:42.378Z,31.87
2017-12-22T02:04:09.313Z,30.40
2017-12-22T02:06:36.217Z,29.55
2017-12-22T02:09:03.165Z,28.75
2017-12-22T02:11:30.020Z,27.62
2017-12-22T02:13:57.245Z,26.70
2017-12-22T02:16:24.450Z,29.00
2017-12-22T02:18:51.384Z,28.30
2017-12-22T02:21:18.546Z,31.45
2017-12-22T02:23:45.422Z,32.03
2017-12-22T02:26:13.258Z,26.92
2017-12-22T02:28:40.182Z,28.58
2017-12-22T02:31:07.053Z,28.98
2017-12-22T02:33:34.302Z,29.12
2017-12-22T02:36:01.449Z,28.27
2017-12-22T02:38:28.330Z,30.27
2017-12-22T02:40:55.197Z,31.70
2017-12-22T02:43:22.381Z,29.92
2017-12-22T02:45:49.295Z,27.60
2017-12-22T02:48:16.483Z,28.73
2017-12-22T02:50:43.360Z,28.20
2017-12-22T02:53:10.230Z,29.08
2017-12-22T02:55:37.417Z,27.02
2017-12-22T02:58:04.288Z,28.90
2017-12-22T03:00:31.157Z,32.47
2017-12-22T03:02:58.182Z,27.73
2017-12-22T03:05:25.404Z,28.05
2017-12-22T03:07:52.268Z,28.30
2017-12-22T03:10:19.262Z,31.23
2017-12-22T03:12:46.154Z,30.25
2017-12-22T03:15:13.288Z,36.28
2017-12-22T03:17:40.437Z,27.92
2017-12-22T03:20:07.328Z,28.77
2017-12-22T03:22:34.538Z,29.80
2017-12-22T03:25:01.426Z,27.98
2017-12-22T03:27:28.292Z,30.90
2017-12-22T03:29:55.486Z,25.15
2017-12-22T03:32:22.386Z,29.08
2017-12-22T03:34:49.291Z,32.35
2017-12-22T03:37:16.206Z,34.75
2017-12-22T03:39:43.108Z,29.50
2017-12-22T03:42:10.311Z,29.87
2017-12-22T03:44:37.222Z,28.90
2017-12-22T03:47:04.402Z,30.20
2017-12-22T03:49:31.504Z,27.67
2017-12-22T03:51:58.401Z,32.92
2017-12-22T03:54:25.552Z,30.15
2017-12-22T03:56:52.421Z,26.08
2017-12-22T03:59:19.309Z,32.88
2017-12-22T04:01:46.484Z,35.70
2017-12-22T04:04:13.353Z,33.23
2017-12-22T04:06:40.237Z,29.70
2017-12-22T04:09:07.130Z,31.83
2017-12-22T04:11:34.266Z,29.23
2017-12-22T04:14:01.125Z,31.03
2017-12-22T04:16:27.980Z,26.60
2017-12-22T04:18:54.905Z,30.48
2017-12-22T04:21:22.049Z,33.72
2017-12-22T04:23:48.905Z,27.60
2017-12-22T04:26:15.776Z,31.10
2017-12-22T04:28:42.641Z,30.75
2017-12-22T04:31:09.527Z,30.83
2017-12-22T04:33:36.672Z,29.85
2017-12-22T04:36:03.584Z,28.27
2017-12-22T04:38:30.449Z,30.93
2017-12-22T04:40:57.325Z,32.40
2017-12-22T04:43:24.180Z,28.57
2017-12-22T04:45:51.299Z,29.20
2017-12-22T04:48:18.156Z,32.28
2017-12-22T04:50:45.089Z,33.43
2017-12-22T04:53:11.978Z,27.47
2017-12-22T04:55:38.879Z,28.57
2017-12-22T04:58:05.775Z,27.20
2017-12-22T05:00:32.669Z,32.55
2017-12-22T05:02:59.541Z,36.80
2017-12-22T05:05:26.658Z,29.10
2017-12-22T05:07:53.507Z,31.77
2017-12-22T05:10:20.654Z,31.13
2017-12-22T05:12:47.513Z,28.95
2017-12-22T05:15:14.360Z,28.25
2017-12-22T05:17:41.258Z,31.70
2017-12-22T05:20:08.150Z,29.90
2017-12-22T05:22:35.050Z,27.17
2017-12-22T05:25:01.905Z,28.25
2017-12-22T05:27:28.761Z,28.75
2017-12-22T05:29:55.617Z,27.70
2017-12-22T05:32:22.858Z,29.12
2017-12-22T05:34:49.743Z,28.52
2017-12-22T05:37:16.948Z,27.20
2017-12-22T05:39:43.829Z,26.35
2017-12-22T05:42:10.688Z,26.07
2017-12-22T05:44:37.574Z,29.30
2017-12-22T05:47:04.440Z,28.00
2017-12-22T05:49:31.582Z,29.55
2017-12-22T05:51:58.472Z,24.80
2017-12-22T05:54:25.375Z,26.85
2017-12-22T05:56:52.517Z,22.63
2017-12-22T05:59:19.418Z,31.85
2017-12-22T06:01:46.313Z,27.13
2017-12-22T06:04:13.210Z,34.53
2017-12-22T06:06:40.396Z,33.58
2017-12-22T06:09:07.294Z,32.05
2017-12-22T06:11:34.145Z,27.58
2017-12-22T06:14:02.260Z,27.55
2017-12-22T06:16:29.154Z,29.40
2017-12-22T06:18:56.318Z,25.80
2017-12-22T06:21:23.445Z,26.40
2017-12-22T06:23:50.338Z,24.40
2017-12-22T06:26:17.197Z,27.95
2017-12-22T06:28:44.049Z,29.05
2017-12-22T06:31:11.185Z,25.52
2017-12-22T06:33:38.065Z,23.85
2017-12-22T06:36:04.986Z,21.50
2017-12-22T06:38:32.233Z,26.15
2017-12-22T06:40:59.100Z,31.37
2017-12-22T06:43:25.949Z,29.33
2017-12-22T06:45:52.825Z,23.50
2017-12-22T06:48:19.713Z,28.80
2017-12-22T06:50:46.857Z,28.38
2017-12-22T06:53:13.709Z,33.30
2017-12-22T06:55:40.817Z,34.80
2017-12-22T06:58:07.710Z,30.50
2017-12-22T07:00:34.841Z,31.50
2017-12-22T07:03:01.718Z,34.85
2017-12-22T07:05:28.610Z,31.73
2017-12-22T07:07:55.476Z,38.90
2017-12-22T07:10:22.348Z,39.15
2017-12-22T07:12:49.250Z,34.17
2017-12-22T07:15:16.420Z,37.97
2017-12-22T07:17:43.671Z,45.00
2017-12-22T07:20:10.818Z,40.60
2017-12-22T07:22:37.696Z,45.33
2017-12-22T07:25:04.914Z,34.38
2017-12-22T07:27:31.819Z,41.67
2017-12-22T07:29:58.726Z,40.97
2017-12-22T07:32:25.638Z,36.10
2017-12-22T07:34:52.539Z,41.33
2017-12-22T07:37:19.444Z,43.80
2017-12-22T07:39:46.537Z,40.63
2017-12-22T07:42:13.436Z,38.50
2017-12-22T07:44:40.334Z,45.75
2017-12-22T07:47:07.527Z,42.25
2017-12-22T07:49:34.420Z,41.05
2017-12-22T07:52:01.403Z,38.90
2017-12-22T07:54:28.565Z,39.22
2017-12-22T07:56:55.435Z,36.47
2017-12-22T07:59:22.313Z,37.05
2017-12-22T08:01:49.202Z,38.50
2017-12-22T08:04:16.173Z,31.98
2017-12-22T08:06:43.392Z,31.00
2017-12-22T08:09:10.261Z,31.52
2017-12-22T08:11:37.388Z,30.20
2017-12-22T08:14:04.260Z,34.10
2017-12-22T08:16:31.174Z,32.80
2017-12-22T08:18:58.334Z,38.63
2017-12-22T08:21:25.202Z,38.42
2017-12-22T08:23:57.151Z,40.20
2017-12-22T08:26:30.459Z,38.80
2017-12-22T08:29:05.362Z,38.90
2017-12-22T08:31:33.748Z,38.35
2017-12-22T08:34:00.605Z,35.90
2017-12-22T08:36:27.485Z,33.22
2017-12-22T08:38:54.395Z,36.60
2017-12-22T08:41:21.285Z,37.75
2017-12-22T08:43:48.162Z,40.12
2017-12-22T08:46:15.084Z,36.90
2017-12-22T08:48:42.019Z,33.88
2017-12-22T08:51:08.897Z,36.90
2017-12-22T08:53:35.790Z,32.80
2017-12-22T08:56:02.674Z,28.58
2017-12-22T08:58:29.529Z,35.55
2017-12-22T09:00:56.435Z,33.72
2017-12-22T09:03:23.304Z,36.10
2017-12-22T09:05:50.464Z,35.10
2017-12-22T09:08:17.390Z,36.30
2017-12-22T09:10:44.253Z,30.62
2017-12-22T09:13:11.167Z,27.73
2017-12-22T09:15:38.353Z,36.42
2017-12-22T09:18:05.260Z,34.75
2017-12-22T09:20:32.154Z,30.12
2017-12-22T09:22:59.657Z,33.13
2017-12-22T09:25:26.857Z,32.78
2017-12-22T09:27:53.763Z,29.90
2017-12-22T09:30:20.694Z,35.08
2017-12-22T09:32:47.576Z,27.48
2017-12-22T09:35:14.733Z,30.50
2017-12-22T09:37:41.637Z,26.15
2017-12-22T09:40:08.524Z,28.77
2017-12-22T09:42:35.414Z,31.77
2017-12-22T09:45:02.284Z,22.42
2017-12-22T09:47:29.167Z,26.00
2017-12-22T09:49:56.305Z,25.00
2017-12-22T09:52:23.401Z,20.48
2017-12-22T09:54:50.605Z,22.95
2017-12-22T09:57:17.494Z,23.73
2017-12-22T09:59:44.406Z,18.60
2017-12-22T10:02:11.541Z,21.58
2017-12-22T10:04:38.693Z,21.83
2017-12-22T10:07:05.857Z,20.23
2017-12-22T10:09:32.722Z,21.77
2017-12-22T10:11:59.568Z,29.60
2017-12-22T10:14:26.726Z,26.00
2017-12-22T10:16:53.592Z,20.33
2017-12-22T10:19:20.510Z,16.25
2017-12-22T10:21:47.730Z,18.80
2017-12-22T10:24:14.620Z,18.93
2017-12-22T10:26:41.824Z,19.83
2017-12-22T10:29:08.734Z,19.45
2017-12-22T10:31:35.913Z,23.00
2017-12-22T10:34:02.770Z,22.58
2017-12-22T10:36:29.644Z,26.52
2017-12-22T10:38:56.749Z,21.95
2017-12-22T10:41:23.608Z,21.37
2017-12-22T10:43:50.506Z,30.45
2017-12-22T10:46:17.798Z,22.50
2017-12-22T10:48:44.686Z,22.58
2017-12-22T10:51:11.598Z,22.15
2017-12-22T10:53:38.840Z,22.73
2017-12-22T10:56:05.760Z,21.12
2017-12-22T10:58:32.658Z,20.00
2017-12-22T11:00:59.567Z,19.60
2017-12-22T11:03:26.462Z,20.30
2017-12-22T11:05:53.316Z,20.12
2017-12-22T11:08:20.509Z,23.10
2017-12-22T11:10:47.374Z,24.40
2017-12-22T11:13:14.607Z,21.30
2017-12-22T11:15:41.522Z,18.73
2017-12-22T11:18:08.702Z,20.75
2017-12-22T11:20:35.573Z,25.62
2017-12-22T11:23:02.479Z,20.50
2017-12-22T11:25:29.640Z,19.23
2017-12-22T11:27:56.792Z,20.17
2017-12-22T11:30:23.682Z,19.40
2017-12-22T11:32:50.895Z,19.42
2017-12-22T11:35:17.805Z,21.35
2017-12-22T11:37:44.660Z,18.92
2017-12-22T11:40:11.774Z,17.87
2017-12-22T11:42:38.649Z,21.70
2017-12-22T11:45:05.820Z,21.58
2017-12-22T11:47:32.710Z,20.85
2017-12-22T11:49:59.919Z,18.20
2017-12-22T11:52:26.801Z,22.05
2017-12-22T11:54:53.904Z,18.20
2017-12-22T11:57:20.862Z,17.95
2017-12-22T11:59:47.710Z,19.75
2017-12-22T12:02:14.566Z,20.30
2017-12-22T12:04:41.450Z,20.70
2017-12-22T12:07:08.633Z,19.90
2017-12-22T12:09:35.476Z,18.87
2017-12-22T12:12:02.738Z,17.48
2017-12-22T12:14:29.639Z,21.17
2017-12-22T12:16:56.835Z,20.10
2017-12-22T12:19:23.692Z,20.15
2017-12-22T12:21:50.560Z,20.93
2017-12-22T12:24:17.660Z,23.25
2017-12-22T12:26:44.817Z,22.42
2017-12-22T12:29:12.071Z,22.73
2017-12-22T12:31:38.937Z,24.98
2017-12-22T12:34:06.166Z,19.27
2017-12-22T12:36:33.050Z,21.25
2017-12-22T12:38:59.905Z,20.75
2017-12-22T12:41:26.773Z,19.87
2017-12-22T12:43:53.695Z,23.73
2017-12-22T12:46:20.889Z,18.50
2017-12-22T12:48:48.042Z,21.33
2017-12-22T12:51:14.931Z,23.17
2017-12-22T12:53:41.798Z,18.40
2017-12-22T12:56:08.679Z,25.37
2017-12-22T12:58:35.611Z,21.40
2017-12-22T13:01:02.503Z,20.10
2017-12-22T13:03:29.363Z,21.17
2017-12-22T13:05:56.556Z,23.95
2017-12-22T13:08:23.430Z,23.97
2017-12-22T13:10:50.325Z,15.50
2017-12-22T13:13:17.498Z,19.15
2017-12-22T13:15:44.356Z,22.73
2017-12-22T13:18:11.161Z,22.92
2017-12-22T13:20:38.016Z,18.45
2017-12-22T13:23:05.161Z,17.77
2017-12-22T13:25:31.990Z,18.33
2017-12-22T13:27:58.855Z,21.17
2017-12-22T13:30:25.730Z,23.00
2017-12-22T13:32:52.558Z,18.62
2017-12-22T13:35:19.413Z,23.08
2017-12-22T13:37:46.526Z,23.00
2017-12-22T13:40:13.574Z,21.12
2017-12-22T13:42:40.436Z,23.25
2017-12-22T13:45:07.270Z,18.05
2017-12-22T13:47:35.233Z,19.42
2017-12-22T13:50:02.063Z,21.30
2017-12-22T13:52:28.891Z,19.12
2017-12-22T13:54:55.970Z,19.27
2017-12-22T13:57:22.782Z,20.02
2017-12-22T13:59:49.863Z,21.62
2017-12-22T14:02:16.719Z,19.30
2017-12-22T14:04:43.559Z,24.50
2017-12-22T14:07:10.699Z,20.88
2017-12-22T14:09:37.509Z,17.55
2017-12-22T14:12:04.326Z,18.90
2017-12-22T14:14:31.192Z,19.00
2017-12-22T14:16:58.005Z,24.30
2017-12-22T14:19:25.113Z,18.30
2017-12-22T14:21:51.963Z,22.17
2017-12-22T14:24:19.002Z,18.12
2017-12-22T14:26:46.160Z,17.08
2017-12-22T14:29:13.020Z,25.17
2017-12-22T14:31:39.872Z,20.37
2017-12-22T14:34:06.685Z,20.83
2017-12-22T14:36:33.489Z,18.98
2017-12-22T14:39:00.683Z,23.10
2017-12-22T14:41:27.554Z,19.92
2017-12-22T14:43:54.683Z,16.95
2017-12-22T14:46:21.510Z,18.00
2017-12-22T14:48:48.344Z,21.40
2017-12-22T14:51:15.515Z,19.17
2017-12-22T14:53:42.330Z,17.17
2017-12-22T14:56:09.163Z,26.58
2017-12-22T14:58:35.986Z,22.60
2017-12-22T15:01:02.855Z,21.42
2017-12-22T15:03:29.930Z,23.85
2017-12-22T15:05:56.767Z,17.20
2017-12-22T15:08:23.591Z,18.50
2017-12-22T15:10:50.427Z,27.50
2017-12-22T15:13:17.251Z,19.27
2017-12-22T15:15:44.349Z,25.70
2017-12-22T15:18:11.227Z,24.97
2017-12-22T15:20:38.069Z,22.97
2017-12-22T15:23:04.947Z,21.63
2017-12-22T15:25:31.791Z,21.65
2017-12-22T15:27:58.599Z,20.23
2017-12-22T15:30:25.479Z,17.15
2017-12-22T15:32:52.325Z,24.52
2017-12-22T15:35:19.419Z,20.92
2017-12-22T15:37:46.242Z,22.35
2017-12-22T15:40:13.400Z,25.48
2017-12-22T15:42:40.241Z,21.33
2017-12-22T15:45:07.122Z,19.50
2017-12-22T15:47:33.965Z,20.30
2017-12-22T15:50:00.819Z,22.60
2017-12-22T15:53:46.823Z,24.23
2017-12-22T15:56:13.650Z,21.70
2017-12-22T15:58:40.487Z,24.23
2017-12-22T16:01:07.363Z,20.80
2017-12-22T16:03:34.451Z,25.40
2017-12-22T16:06:01.714Z,28.92
2017-12-22T16:08:28.547Z,27.07
2017-12-22T16:10:55.594Z,28.77
2017-12-22T16:13:22.393Z,27.70
2017-12-22T16:15:49.218Z,23.62
2017-12-22T16:18:16.064Z,28.92
2017-12-22T16:20:42.894Z,24.60
2017-12-22T16:23:09.743Z,20.25
2017-12-22T16:25:36.834Z,24.40
2017-12-22T16:28:03.880Z,23.60
2017-12-22T16:30:31.329Z,30.90
2017-12-22T16:32:58.195Z,29.55
2017-12-22T16:35:25.267Z,24.08
2017-12-22T16:37:52.120Z,29.83
2017-12-22T16:40:20.105Z,28.40
2017-12-22T16:42:47.486Z,30.73
2017-12-22T16:45:15.852Z,26.10
2017-12-22T16:47:42.822Z,29.05
2017-12-22T16:50:09.687Z,27.15
2017-12-22T16:52:36.528Z,30.40
2017-12-22T16:55:03.368Z,26.40
2017-12-22T16:57:30.194Z,30.37
2017-12-22T16:59:57.278Z,32.90
2017-12-22T17:02:24.102Z,31.65
2017-12-22T17:04:50.959Z,31.87
2017-12-22T17:07:17.803Z,29.80
2017-12-22T17:09:44.952Z,27.60
2017-12-22T17:12:11.784Z,30.55
2017-12-22T17:14:38.619Z,25.60
2017-12-22T17:17:05.488Z,45.03
2017-12-22T17:19:32.354Z,36.28
2017-12-22T17:21:59.191Z,28.67
2017-12-22T17:24:26.000Z,29.40
2017-12-22T17:26:52.839Z,32.97
2017-12-22T17:29:19.657Z,26.73
2017-12-22T17:31:46.742Z,32.65
2017-12-22T17:34:13.583Z,29.87
2017-12-22T17:36:40.395Z,37.17
2017-12-22T17:39:07.255Z,32.35
2017-12-22T17:41:34.160Z,30.98
2017-12-22T17:44:00.983Z,35.08
2017-12-22T17:46:27.801Z,33.75
2017-12-22T17:48:54.673Z,27.57
2017-12-22T17:51:21.511Z,26.80
2017-12-22T17:53:48.352Z,30.02
2017-12-22T17:56:15.211Z,26.48
2017-12-22T17:58:42.328Z,32.45
2017-12-22T18:01:09.158Z,37.80
2017-12-22T18:03:35.982Z,31.85
2017-12-22T18:06:02.838Z,35.42
2017-12-22T18:08:29.437Z,32.65
2017-12-22T18:10:56.095Z,32.10
2017-12-22T18:13:22.787Z,32.90
2017-12-22T18:15:49.393Z,28.48
2017-12-22T18:18:16.026Z,36.70
2017-12-22T18:20:42.898Z,35.28
2017-12-22T18:23:09.498Z,33.70
2017-12-22T18:25:36.400Z,34.00
2017-12-22T18:28:04.150Z,36.30
2017-12-22T18:30:31.288Z,36.80
2017-12-22T18:32:58.151Z,37.30
2017-12-22T18:35:24.958Z,33.42
2017-12-22T18:37:51.833Z,37.45
2017-12-22T18:40:18.678Z,34.35
2017-12-22T18:42:45.485Z,33.78
2017-12-22T18:45:12.329Z,40.78
2017-12-22T18:47:39.192Z,39.47
2017-12-22T18:50:06.031Z,32.85
2017-12-22T18:52:32.868Z,38.90
2017-12-22T18:54:59.735Z,41.00
2017-12-22T18:57:26.583Z,35.58
2017-12-22T18:59:53.400Z,48.97
2017-12-22T19:02:20.238Z,41.45
2017-12-22T19:04:47.063Z,41.45
2017-12-22T19:07:13.911Z,35.78
2017-12-22T19:09:41.083Z,38.10
2017-12-22T19:12:07.910Z,43.17
2017-12-22T19:14:34.743Z,41.15
2017-12-22T19:17:01.623Z,34.65
2017-12-22T19:19:28.476Z,41.00
2017-12-22T19:21:55.614Z,33.60
2017-12-22T19:24:22.763Z,47.83
2017-12-22T19:26:49.604Z,42.95
2017-12-22T19:29:16.427Z,43.45
2017-12-22T19:31:43.495Z,45.20
2017-12-22T19:34:10.545Z,46.50
2017-12-22T19:36:37.375Z,38.87
2017-12-22T19:39:04.244Z,39.03
2017-12-22T19:41:31.083Z,34.95
2017-12-22T19:43:58.128Z,42.67
2017-12-22T19:46:25.266Z,39.08
2017-12-22T19:48:52.082Z,37.00
2017-12-22T19:51:19.158Z,41.17
2017-12-22T19:53:46.056Z,36.53
2017-12-22T19:56:13.159Z,35.50
2017-12-22T19:58:40.090Z,39.17
2017-12-22T20:01:06.958Z,41.60
2017-12-22T20:03:33.972Z,41.97
2017-12-22T20:06:01.144Z,37.65
2017-12-22T20:08:28.466Z,40.58
2017-12-22T20:10:55.647Z,38.65
2017-12-22T20:13:22.454Z,40.00
2017-12-22T20:15:49.328Z,38.80
2017-12-22T20:18:16.137Z,50.72
2017-12-22T20:20:43.221Z,37.47
2017-12-22T20:23:10.066Z,38.90
2017-12-22T20:25:36.903Z,36.50
2017-12-22T20:28:03.775Z,46.75
2017-12-22T20:30:30.601Z,42.47
2017-12-22T20:32:57.741Z,40.75
2017-12-22T20:35:24.581Z,41.75
2017-12-22T20:37:51.423Z,37.05
2017-12-22T20:40:18.245Z,46.83
2017-12-22T20:42:45.081Z,38.58
2017-12-22T20:45:11.910Z,44.40
2017-12-22T20:47:38.750Z,47.38
2017-12-22T20:50:05.855Z,55.85
2017-12-22T20:52:32.682Z,43.22
2017-12-22T20:54:59.506Z,55.67
2017-12-22T20:57:26.346Z,41.80
2017-12-22T20:59:53.435Z,40.77
2017-12-22T21:02:20.276Z,38.15
2017-12-22T21:04:47.108Z,41.42
2017-12-22T21:07:13.947Z,38.17
2017-12-22T21:09:40.756Z,37.78
2017-12-22T21:12:07.636Z,37.63
2017-12-22T21:14:34.738Z,41.75
2017-12-22T21:17:01.552Z,36.53
2017-12-22T21:19:28.374Z,38.13
2017-12-22T21:21:55.430Z,43.50
2017-12-22T21:24:22.288Z,39.38
2017-12-22T21:26:49.359Z,42.83
2017-12-22T21:29:16.236Z,41.45
2017-12-22T21:31:43.084Z,38.25
2017-12-22T21:34:09.906Z,42.25
2017-12-22T21:36:36.956Z,38.65
2017-12-22T21:39:03.820Z,34.63
2017-12-22T21:41:30.965Z,41.97
2017-12-22T21:43:58.018Z,39.97
2017-12-22T21:46:24.863Z,38.08
2017-12-22T21:48:51.906Z,38.03
2017-12-22T21:51:18.987Z,35.35
2017-12-22T21:53:45.855Z,40.83
2017-12-22T21:56:12.685Z,37.58
2017-12-22T21:58:39.530Z,35.47
2017-12-22T22:01:06.354Z,36.20
2017-12-22T22:03:33.214Z,41.00
2017-12-22T22:06:00.075Z,35.80
2017-12-22T22:08:27.191Z,52.15
2017-12-22T22:10:54.026Z,36.93
2017-12-22T22:13:20.864Z,45.58
2017-12-22T22:15:47.687Z,42.75
2017-12-22T22:18:14.493Z,38.75
2017-12-22T22:20:41.334Z,36.92
2017-12-22T22:23:08.154Z,39.92
2017-12-22T22:25:35.300Z,35.85
2017-12-22T22:28:02.445Z,39.55
2017-12-22T22:30:29.255Z,36.63
2017-12-22T22:32:56.337Z,37.05
2017-12-22T22:35:23.187Z,45.67
2017-12-22T22:37:50.036Z,37.88
2017-12-22T22:40:16.858Z,42.90
2017-12-22T22:42:43.689Z,44.58
2017-12-22T22:45:10.505Z,41.63
2017-12-22T22:47:37.710Z,37.63
2017-12-22T22:50:04.792Z,38.85
2017-12-22T22:52:31.626Z,30.50
2017-12-22T22:54:58.449Z,41.63
2017-12-22T22:57:25.297Z,42.58
2017-12-22T22:59:52.129Z,43.92
2017-12-22T23:02:19.007Z,35.90
2017-12-22T23:04:45.849Z,34.88
2017-12-22T23:07:12.689Z,34.17
2017-12-22T23:09:39.551Z,35.03
2017-12-22T23:12:06.377Z,37.30
2017-12-22T23:14:33.246Z,32.73
2017-12-22T23:17:00.291Z,37.70
2017-12-22T23:19:27.119Z,34.33
2017-12-22T23:21:53.951Z,39.03
2017-12-22T23:24:20.807Z,47.88
2017-12-22T23:26:47.835Z,38.38
2017-12-22T23:29:14.951Z,43.27
2017-12-22T23:31:47.769Z,41.35
2017-12-22T23:34:14.640Z,36.22
2017-12-22T23:36:42.999Z,43.17
2017-12-22T23:39:10.263Z,41.75
2017-12-22T23:41:37.132Z,42.05
2017-12-22T23:44:03.938Z,44.25
2017-12-22T23:46:30.810Z,39.53
2017-12-22T23:48:57.899Z,38.97
2017-12-22T23:51:24.724Z,34.55
2017-12-22T23:53:51.793Z,33.13
2017-12-22T23:56:18.685Z,36.35
2017-12-22T23:58:45.783Z,35.40
